createdAt,value
2022-09-10T00:00:04.883Z,56.76
2022-09-10T00:02:33.593Z,56.69
2022-09-10T00:05:02.414Z,56.76
2022-09-10T00:07:32.590Z,56.69
2022-09-10T00:10:00.495Z,57.07
2022-09-10T00:12:29.553Z,57.08
2022-09-10T00:14:57.127Z,57.21
2022-09-10T00:17:25.244Z,56.99
2022-09-10T00:19:52.827Z,57.16
2022-09-10T00:22:22.470Z,57.36
2022-09-10T00:24:50.071Z,57.04
2022-09-10T00:27:17.772Z,57.09
2022-09-10T00:29:46.832Z,57.11
2022-09-10T00:32:14.598Z,57.32
2022-09-10T00:34:42.203Z,57.23
2022-09-10T00:37:09.951Z,56.98
2022-09-10T00:39:37.578Z,56.77
2022-09-10T00:42:05.877Z,56.85
2022-09-10T00:45:08.442Z,56.42
2022-09-10T00:47:37.205Z,56.68
2022-09-10T00:50:07.907Z,56.41
2022-09-10T00:52:39.645Z,56.60
2022-09-10T00:55:08.802Z,56.64
2022-09-10T00:57:36.437Z,56.35
2022-09-10T01:00:10.680Z,56.68
2022-09-10T01:02:38.443Z,56.37
2022-09-10T01:05:07.164Z,56.50
2022-09-10T01:07:35.238Z,56.70
2022-09-10T01:10:06.973Z,56.57
2022-09-10T01:12:51.371Z,56.21
2022-09-10T01:15:23.075Z,56.50
2022-09-10T01:17:59.487Z,56.56
2022-09-10T01:20:48.214Z,56.23
2022-09-10T01:23:34.924Z,56.05
2022-09-10T01:26:07.500Z,56.20
2022-09-10T01:28:39.484Z,56.08
2022-09-10T01:31:11.942Z,56.25
2022-09-10T01:33:43.002Z,56.73
2022-09-10T01:36:13.075Z,56.90
2022-09-10T01:38:41.854Z,57.07
2022-09-10T01:41:10.157Z,57.14
2022-09-10T01:43:39.230Z,57.31
2022-09-10T01:46:19.163Z,57.26
2022-09-10T01:49:13.840Z,57.36
2022-09-10T01:51:50.634Z,57.46
2022-09-10T01:54:24.852Z,57.67
2022-09-10T01:56:54.964Z,58.02
2022-09-10T01:59:30.335Z,58.13
2022-09-10T02:02:01.272Z,58.31
2022-09-10T02:04:29.032Z,58.01
2022-09-10T02:06:56.713Z,58.19
2022-09-10T02:09:24.504Z,58.40
2022-09-10T02:11:53.501Z,58.68
2022-09-10T02:14:22.061Z,58.58
2022-09-10T02:16:52.861Z,58.76
2022-09-10T02:19:20.524Z,58.65
2022-09-10T02:21:48.187Z,58.47
2022-09-10T02:24:15.891Z,58.62
2022-09-10T02:26:44.312Z,58.92
2022-09-10T02:29:13.674Z,58.92
2022-09-10T02:31:41.415Z,58.81
2022-09-10T02:34:10.663Z,58.86
2022-09-10T02:36:39.590Z,58.86
2022-09-10T02:39:08.063Z,59.06
2022-09-10T02:41:35.750Z,59.17
2022-09-10T02:44:03.986Z,59.16
2022-09-10T02:46:31.804Z,59.34
2022-09-10T02:48:59.488Z,59.32
2022-09-10T02:51:28.606Z,58.92
2022-09-10T02:53:56.433Z,59.21
2022-09-10T02:56:24.605Z,59.16
2022-09-10T02:58:52.222Z,59.18
2022-09-10T03:01:21.597Z,59.22
2022-09-10T03:03:50.244Z,59.13
2022-09-10T03:06:19.360Z,59.29
2022-09-10T03:08:48.558Z,59.37
2022-09-10T03:11:16.354Z,59.26
2022-09-10T03:13:45.920Z,59.53
2022-09-10T03:16:13.773Z,59.78
2022-09-10T03:18:41.916Z,59.83
2022-09-10T03:21:10.701Z,60.09
2022-09-10T03:23:40.315Z,60.30
2022-09-10T03:26:10.197Z,60.60
2022-09-10T03:28:38.610Z,60.66
2022-09-10T03:31:06.692Z,60.53
2022-09-10T03:33:34.412Z,60.53
2022-09-10T03:36:02.659Z,60.38
2022-09-10T03:38:30.291Z,60.54
2022-09-10T03:40:58.107Z,60.59
2022-09-10T03:43:27.270Z,60.31
2022-09-10T03:45:55.308Z,59.86
2022-09-10T03:48:22.956Z,60.28
2022-09-10T03:50:50.900Z,60.57
2022-09-10T03:53:19.051Z,60.58
2022-09-10T03:55:47.171Z,60.59
2022-09-10T03:58:14.841Z,60.52
2022-09-10T04:00:43.932Z,60.50
2022-09-10T04:03:12.002Z,60.52
2022-09-10T04:05:40.958Z,60.34
2022-09-10T04:08:09.855Z,60.15
2022-09-10T04:10:37.667Z,60.12
2022-09-10T04:13:05.336Z,60.24
2022-09-10T04:15:33.113Z,60.20
2022-09-10T04:18:02.061Z,59.92
2022-09-10T04:20:29.769Z,60.01
2022-09-10T04:22:57.639Z,60.43
2022-09-10T04:25:25.408Z,59.87
2022-09-10T04:27:53.005Z,59.88
2022-09-10T04:30:20.750Z,60.09
2022-09-10T04:32:49.613Z,59.94
2022-09-10T04:35:20.287Z,60.23
2022-09-10T04:37:47.873Z,59.98
2022-09-10T04:40:15.666Z,60.09
2022-09-10T04:42:43.401Z,59.95
2022-09-10T04:45:11.590Z,59.73
2022-09-10T04:47:39.553Z,59.86
2022-09-10T04:50:08.293Z,59.95
2022-09-10T04:52:37.217Z,59.86
2022-09-10T04:55:05.607Z,59.86
2022-09-10T04:57:33.225Z,60.05
2022-09-10T05:00:01.351Z,59.83
2022-09-10T05:02:29.172Z,59.86
2022-09-10T05:04:56.929Z,59.90
2022-09-10T05:07:24.561Z,59.75
2022-09-10T05:09:53.753Z,60.20
2022-09-10T05:12:22.888Z,59.87
2022-09-10T05:14:50.653Z,59.47
2022-09-10T05:17:18.237Z,59.80
2022-09-10T05:19:45.983Z,59.74
2022-09-10T05:22:13.641Z,59.79
2022-09-10T05:24:44.604Z,60.45
2022-09-10T05:27:13.574Z,59.74
2022-09-10T05:29:41.384Z,59.90
2022-09-10T05:32:09.824Z,59.97
2022-09-10T05:34:39.941Z,59.89
2022-09-10T05:37:08.715Z,60.02
2022-09-10T05:39:36.588Z,59.46
2022-09-10T05:42:04.753Z,59.58
2022-09-10T05:44:34.278Z,59.82
2022-09-10T05:47:02.152Z,59.55
2022-09-10T05:49:30.370Z,59.69
2022-09-10T05:51:58.513Z,59.69
2022-09-10T05:54:26.372Z,59.50
2022-09-10T05:56:54.221Z,59.61
2022-09-10T05:59:22.193Z,59.64
2022-09-10T06:01:52.051Z,59.49
2022-09-10T06:04:20.313Z,59.80
2022-09-10T06:06:48.310Z,59.78
2022-09-10T06:09:17.143Z,59.85
2022-09-10T06:11:44.875Z,59.73
2022-09-10T06:14:14.855Z,59.36
2022-09-10T06:16:42.735Z,59.45
2022-09-10T06:19:12.504Z,59.61
2022-09-10T06:21:40.391Z,59.53
2022-09-10T06:24:08.602Z,59.61
2022-09-10T06:26:37.133Z,59.43
2022-09-10T06:29:05.221Z,59.55
2022-09-10T06:31:34.660Z,59.40
2022-09-10T06:34:03.182Z,59.30
2022-09-10T06:36:33.254Z,59.25
2022-09-10T06:39:03.294Z,59.13
2022-09-10T06:41:31.197Z,59.38
2022-09-10T06:43:59.301Z,59.51
2022-09-10T06:49:15.816Z,59.03
2022-09-10T06:51:45.009Z,58.97
2022-09-10T06:54:13.276Z,58.71
2022-09-10T06:56:42.041Z,58.63
2022-09-10T06:59:10.063Z,58.90
2022-09-10T07:01:37.906Z,58.70
2022-09-10T07:04:06.862Z,58.74
2022-09-10T07:06:35.616Z,58.91
2022-09-10T07:09:05.438Z,58.77
2022-09-10T07:11:35.938Z,58.86
2022-09-10T07:14:07.315Z,58.80
2022-09-10T07:16:35.585Z,58.62
2022-09-10T07:19:05.367Z,58.96
2022-09-10T07:21:36.862Z,58.85
2022-09-10T07:24:06.343Z,58.68
2022-09-10T07:26:34.156Z,58.33
2022-09-10T07:29:01.757Z,58.53
2022-09-10T07:31:30.372Z,58.75
2022-09-10T07:33:58.637Z,58.88
2022-09-10T07:36:26.396Z,58.72
2022-09-10T07:38:54.698Z,58.91
2022-09-10T07:41:23.724Z,58.90
2022-09-10T07:43:54.047Z,58.52
2022-09-10T07:46:21.835Z,58.51
2022-09-10T07:48:49.838Z,58.14
2022-09-10T07:51:19.120Z,58.10
2022-09-10T07:53:50.523Z,58.09
2022-09-10T07:56:18.672Z,57.93
2022-09-10T07:58:47.650Z,57.73
2022-09-10T08:01:15.826Z,58.01
2022-09-10T08:03:43.495Z,57.97
2022-09-10T08:06:11.224Z,58.11
2022-09-10T08:08:39.834Z,57.74
2022-09-10T08:11:11.723Z,58.05
2022-09-10T08:13:40.258Z,57.59
2022-09-10T08:16:10.410Z,57.33
2022-09-10T08:18:38.443Z,57.40
2022-09-10T08:21:07.547Z,57.53
2022-09-10T08:23:35.201Z,57.26
2022-09-10T08:26:04.427Z,57.22
2022-09-10T08:28:32.155Z,57.41
2022-09-10T08:31:01.786Z,57.18
2022-09-10T08:33:32.706Z,57.39
2022-09-10T08:36:00.646Z,57.11
2022-09-10T08:38:31.000Z,57.03
2022-09-10T08:41:00.020Z,57.16
2022-09-10T08:43:31.593Z,57.40
2022-09-10T08:45:59.772Z,57.54
2022-09-10T08:48:27.693Z,57.53
2022-09-10T08:50:57.814Z,57.41
2022-09-10T08:53:26.975Z,57.67
2022-09-10T08:55:57.705Z,57.23
2022-09-10T08:58:26.538Z,56.97
2022-09-10T09:00:55.021Z,56.80
2022-09-10T09:03:23.921Z,56.93
2022-09-10T09:05:53.809Z,56.22
2022-09-10T09:08:25.755Z,55.57
2022-09-10T09:10:56.127Z,54.73
2022-09-10T09:13:41.200Z,54.27
2022-09-10T09:16:24.643Z,51.61
2022-09-10T09:19:02.317Z,51.64
2022-09-10T09:21:35.169Z,50.93
2022-09-10T09:24:20.046Z,50.50
2022-09-10T09:26:48.081Z,50.27
2022-09-10T09:29:21.052Z,49.93
2022-09-10T09:31:50.982Z,49.39
2022-09-10T09:34:29.767Z,48.45
2022-09-10T09:37:03.282Z,47.88
2022-09-10T09:39:37.407Z,47.73
2022-09-10T09:42:08.028Z,47.63
2022-09-10T09:44:38.816Z,48.84
2022-09-10T09:47:06.513Z,49.71
2022-09-10T09:49:34.717Z,50.68
2022-09-10T09:52:03.045Z,51.04
2022-09-10T09:55:03.093Z,52.48
2022-09-10T09:57:22.320Z,53.01
2022-09-10T09:59:50.403Z,53.62
2022-09-10T10:02:18.798Z,54.42
2022-09-10T10:04:55.094Z,55.31
2022-09-10T10:07:26.655Z,55.92
2022-09-10T10:09:55.753Z,56.49
2022-09-10T10:12:23.533Z,57.07
2022-09-10T10:14:51.600Z,57.64
2022-09-10T10:17:27.339Z,57.85
2022-09-10T10:20:08.959Z,57.49
2022-09-10T10:22:36.939Z,57.26
2022-09-10T10:25:07.947Z,57.23
2022-09-10T10:27:36.610Z,57.30
2022-09-10T10:30:22.279Z,57.62
2022-09-10T10:32:53.098Z,57.31
2022-09-10T10:35:27.004Z,58.20
2022-09-10T10:38:04.046Z,58.57
2022-09-10T10:40:34.874Z,58.88
2022-09-10T10:43:07.994Z,59.05
2022-09-10T10:45:38.164Z,59.61
2022-09-10T10:48:11.596Z,60.34
2022-09-10T10:50:45.818Z,61.28
2022-09-10T10:54:03.599Z,62.83
2022-09-10T10:56:35.986Z,63.89
2022-09-10T10:59:10.515Z,64.41
2022-09-10T11:01:39.534Z,64.43
2022-09-10T11:04:19.602Z,65.15
2022-09-10T11:06:49.408Z,65.27
2022-09-10T11:09:19.453Z,65.80
2022-09-10T11:11:52.086Z,65.81
2022-09-10T11:14:21.925Z,65.78
2022-09-10T11:16:55.394Z,65.69
2022-09-10T11:19:28.281Z,65.67
2022-09-10T11:21:58.690Z,65.67
2022-09-10T11:24:27.963Z,65.85
2022-09-10T11:27:00.628Z,65.87
2022-09-10T11:29:35.098Z,65.81
2022-09-10T11:32:06.243Z,65.67
2022-09-10T11:34:36.347Z,65.97
2022-09-10T11:37:06.312Z,65.76
2022-09-10T11:39:35.438Z,65.58
2022-09-10T11:42:08.280Z,65.52
2022-09-10T11:44:42.010Z,65.39
2022-09-10T11:47:14.313Z,66.70
2022-09-10T11:49:44.513Z,66.08
2022-09-10T11:52:12.428Z,65.42
2022-09-10T11:54:40.338Z,65.37
2022-09-10T11:57:11.371Z,65.54
2022-09-10T11:59:56.010Z,65.47
2022-09-10T12:02:41.595Z,65.13
2022-09-10T12:05:16.442Z,65.35
2022-09-10T12:07:46.698Z,65.26
2022-09-10T12:10:19.913Z,65.55
2022-09-10T12:12:50.130Z,65.55
2022-09-10T12:15:19.833Z,65.06
2022-09-10T12:17:49.314Z,65.31
2022-09-10T12:20:19.235Z,65.30
2022-09-10T12:22:48.137Z,64.93
2022-09-10T12:25:29.279Z,64.77
2022-09-10T12:28:01.278Z,64.76
2022-09-10T12:31:02.881Z,64.20
2022-09-10T12:34:12.369Z,64.15
2022-09-10T12:37:17.095Z,64.01
2022-09-10T12:39:45.468Z,64.07
2022-09-10T12:42:30.695Z,64.21
2022-09-10T12:44:59.772Z,64.25
2022-09-10T12:47:50.199Z,64.26
2022-09-10T12:50:32.224Z,64.20
2022-09-10T12:53:21.038Z,63.84
2022-09-10T12:55:53.957Z,63.76
2022-09-10T12:58:25.100Z,63.09
2022-09-10T13:01:05.977Z,62.71
2022-09-10T13:03:33.812Z,62.36
2022-09-10T13:06:04.368Z,61.46
2022-09-10T13:08:33.655Z,61.67
2022-09-10T13:32:40.956Z,60.33
2022-09-10T13:39:51.303Z,59.96
2022-09-10T13:43:13.990Z,60.40
2022-09-10T13:46:22.009Z,59.76
2022-09-10T13:52:26.739Z,60.47
2022-09-10T13:55:26.361Z,60.20
2022-09-10T13:58:31.426Z,59.59
2022-09-10T14:01:28.424Z,59.63
2022-09-10T14:03:58.353Z,59.58
2022-09-10T14:06:26.538Z,59.94
2022-09-10T14:08:55.729Z,59.49
2022-09-10T14:11:24.972Z,59.39
2022-09-10T14:13:56.147Z,58.86
2022-09-10T14:16:30.108Z,58.89
2022-09-10T14:19:01.489Z,58.62
2022-09-10T14:21:30.145Z,58.03
2022-09-10T14:24:02.502Z,57.90
2022-09-10T14:26:31.831Z,57.89
2022-09-10T14:29:01.303Z,58.05
2022-09-10T14:31:35.699Z,57.84
2022-09-10T14:34:27.968Z,57.87
2022-09-10T14:36:56.169Z,58.28
2022-09-10T14:39:24.057Z,57.95
2022-09-10T14:42:10.991Z,58.42
2022-09-10T14:44:42.130Z,58.85
2022-09-10T14:47:14.787Z,58.79
2022-09-10T14:49:47.302Z,58.48
2022-09-10T14:52:15.649Z,59.14
2022-09-10T14:54:43.724Z,59.11
2022-09-10T14:57:14.919Z,59.15
2022-09-10T14:59:44.020Z,58.57
2022-09-10T15:02:17.004Z,58.86
2022-09-10T15:04:47.777Z,58.65
2022-09-10T15:36:51.927Z,59.15
2022-09-10T15:48:31.550Z,58.99
2022-09-10T16:20:39.879Z,58.54
2022-09-10T16:23:09.084Z,58.57
2022-09-10T16:25:37.258Z,58.71
2022-09-10T16:28:05.969Z,58.73
2022-09-10T16:30:35.062Z,58.95
2022-09-10T16:33:03.850Z,58.49
2022-09-10T16:35:33.218Z,58.81
2022-09-10T16:38:02.850Z,59.10
2022-09-10T16:40:31.593Z,58.97
2022-09-10T16:43:00.319Z,59.51
2022-09-10T16:45:28.393Z,59.95
2022-09-10T16:48:03.448Z,60.15
2022-09-10T16:50:33.851Z,60.01
2022-09-10T16:53:04.028Z,60.23
2022-09-10T16:55:32.690Z,60.09
2022-09-10T16:58:01.463Z,60.63
2022-09-10T17:00:29.864Z,60.44
2022-09-10T17:02:59.177Z,60.42
2022-09-10T17:05:26.796Z,60.38
2022-09-10T17:07:54.740Z,60.37
2022-09-10T17:10:25.283Z,60.29
2022-09-10T17:12:54.705Z,60.28
2022-09-10T17:15:23.327Z,60.52
2022-09-10T17:17:52.049Z,60.04
2022-09-10T17:20:20.122Z,60.15
2022-09-10T17:22:48.029Z,60.11
2022-09-10T17:25:16.686Z,60.38
2022-09-10T17:27:45.802Z,60.17
2022-09-10T17:30:14.006Z,60.35
2022-09-10T17:32:41.685Z,60.56
2022-09-10T17:35:12.093Z,60.57
2022-09-10T17:37:40.665Z,60.72
2022-09-10T17:40:09.467Z,60.56
2022-09-10T17:42:37.290Z,60.40
2022-09-10T17:45:07.484Z,60.71
2022-09-10T17:47:35.187Z,60.60
2022-09-10T17:50:02.835Z,60.89
2022-09-10T17:52:30.576Z,60.73
2022-09-10T17:54:58.179Z,60.87
2022-09-10T17:57:25.984Z,60.75
2022-09-10T17:59:54.494Z,60.86
2022-09-10T18:02:23.635Z,60.96
2022-09-10T18:04:51.389Z,60.75
2022-09-10T18:07:19.168Z,61.13
2022-09-10T18:09:47.650Z,60.96
2022-09-10T18:12:16.158Z,61.05
2022-09-10T18:14:44.210Z,61.22
2022-09-10T18:17:13.036Z,61.11
2022-09-10T18:19:43.276Z,61.23
2022-09-10T18:22:11.494Z,61.27
2022-09-10T18:24:40.425Z,61.07
2022-09-10T18:27:08.066Z,61.20
2022-09-10T18:29:38.798Z,61.12
2022-09-10T18:32:07.344Z,61.16
2022-09-10T18:34:39.784Z,61.34
2022-09-10T18:37:09.141Z,61.25
2022-09-10T18:39:36.969Z,61.60
2022-09-10T18:42:06.182Z,61.58
2022-09-10T18:44:36.418Z,61.42
2022-09-10T18:47:05.597Z,61.42
2022-09-10T18:49:33.505Z,61.47
2022-09-10T18:52:01.200Z,61.51
2022-09-10T18:54:32.653Z,61.40
2022-09-10T18:57:01.220Z,61.44
2022-09-10T18:59:28.930Z,61.35
2022-09-10T19:01:57.281Z,61.58
2022-09-10T19:04:26.613Z,61.61
2022-09-10T19:06:54.850Z,61.50
2022-09-10T19:09:23.551Z,61.45
2022-09-10T19:11:54.270Z,61.42
2022-09-10T19:14:23.410Z,61.39
2022-09-10T19:16:51.981Z,61.33
2022-09-10T19:19:22.227Z,61.03
2022-09-10T19:21:51.312Z,61.12
2022-09-10T19:24:32.818Z,61.32
2022-09-10T19:27:07.513Z,61.38
2022-09-10T19:29:35.682Z,61.36
2022-09-10T19:32:04.380Z,61.20
2022-09-10T19:34:32.456Z,61.15
2022-09-10T19:37:00.592Z,61.50
2022-09-10T19:39:28.492Z,61.41
2022-09-10T19:41:56.574Z,61.49
2022-09-10T19:44:26.039Z,61.34
2022-09-10T19:46:53.917Z,61.24
2022-09-10T19:49:22.323Z,61.27
2022-09-10T19:51:50.132Z,61.64
2022-09-10T19:54:18.536Z,61.45
2022-09-10T19:56:50.739Z,61.48
2022-09-10T19:59:18.958Z,61.07
2022-09-10T20:01:50.138Z,61.59
2022-09-10T20:04:18.621Z,61.50
2022-09-10T20:06:47.816Z,61.37
2022-09-10T20:09:16.815Z,62.01
2022-09-10T20:11:45.837Z,61.50
2022-09-10T20:14:14.560Z,61.45
2022-09-10T20:16:43.791Z,61.61
2022-09-10T20:19:14.365Z,61.89
2022-09-10T20:21:42.587Z,61.72
2022-09-10T20:24:10.804Z,61.47
2022-09-10T20:26:41.218Z,61.71
2022-09-10T20:29:11.358Z,61.91
2022-09-10T20:31:41.219Z,61.92
2022-09-10T20:34:11.352Z,61.84
2022-09-10T20:36:42.344Z,61.74
2022-09-10T20:39:11.321Z,62.07
2022-09-10T20:41:40.100Z,62.11
2022-09-10T20:44:07.977Z,62.20
2022-09-10T20:46:35.810Z,62.01
2022-09-10T20:49:04.358Z,62.11
2022-09-10T20:51:33.413Z,62.26
2022-09-10T20:54:02.982Z,62.51
2022-09-10T20:56:30.884Z,62.49
2022-09-10T20:58:59.392Z,62.54
2022-09-10T21:01:28.291Z,62.61
2022-09-10T21:03:59.176Z,63.00
2022-09-10T21:06:28.195Z,62.74
2022-09-10T21:08:56.534Z,63.00
2022-09-10T21:11:29.385Z,62.89
2022-09-10T21:13:58.071Z,63.00
2022-09-10T21:16:27.269Z,62.93
2022-09-10T21:18:56.602Z,62.87
2022-09-10T21:21:25.864Z,63.28
2022-09-10T21:23:54.629Z,62.73
2022-09-10T21:26:23.449Z,62.72
2022-09-10T21:28:53.261Z,62.79
2022-09-10T21:31:21.359Z,62.80
2022-09-10T21:33:50.322Z,62.90
2022-09-10T21:36:19.135Z,63.03
2022-09-10T21:38:48.210Z,62.93
2022-09-10T21:41:17.027Z,63.04
2022-09-10T21:43:45.624Z,62.88
2022-09-10T21:46:15.462Z,62.72
2022-09-10T21:48:44.326Z,62.81
2022-09-10T21:51:13.758Z,62.68
2022-09-10T21:53:41.740Z,63.01
2022-09-10T21:56:09.823Z,62.62
2022-09-10T21:58:38.015Z,62.71
2022-09-10T22:01:10.448Z,62.52
2022-09-10T22:03:39.865Z,62.79
2022-09-10T22:06:09.282Z,62.96
2022-09-10T22:08:37.618Z,62.54
2022-09-10T22:11:07.723Z,62.86
2022-09-10T22:13:38.104Z,62.86
2022-09-10T22:16:06.922Z,62.51
2022-09-10T22:18:35.423Z,62.60
2022-09-10T22:21:04.885Z,62.63
2022-09-10T22:23:40.731Z,62.57
2022-09-10T22:26:09.680Z,62.44
2022-09-10T22:28:38.648Z,62.90
2022-09-10T22:31:10.146Z,62.94
2022-09-10T22:33:39.291Z,63.11
2022-09-10T22:36:15.496Z,63.15
2022-09-10T22:38:43.734Z,63.09
2022-09-10T22:41:14.470Z,63.17
2022-09-10T22:43:42.892Z,63.08
2022-09-10T22:46:11.644Z,63.30
2022-09-10T22:48:42.977Z,63.33
2022-09-10T22:51:12.082Z,63.36
2022-09-10T22:53:50.042Z,63.58
2022-09-10T22:56:19.531Z,63.57
2022-09-10T22:58:51.795Z,63.60
2022-09-10T23:01:21.480Z,64.01
2022-09-10T23:03:49.475Z,63.64
2022-09-10T23:06:18.203Z,63.14
2022-09-10T23:08:48.707Z,63.64
2022-09-10T23:11:17.741Z,63.86
2022-09-10T23:13:46.216Z,64.12
2022-09-10T23:16:15.302Z,64.22
2022-09-10T23:18:43.524Z,64.15
2022-09-10T23:21:12.049Z,64.29
2022-09-10T23:23:40.297Z,63.87
2022-09-10T23:26:10.927Z,63.81
2022-09-10T23:28:42.224Z,64.64
2022-09-10T23:31:13.564Z,64.32
2022-09-10T23:33:42.467Z,64.34
2022-09-10T23:36:11.666Z,64.21
2022-09-10T23:38:39.850Z,64.22
2022-09-10T23:41:09.669Z,64.21
2022-09-10T23:43:37.612Z,64.10
2022-09-10T23:46:05.652Z,64.47
2022-09-10T23:48:35.482Z,64.44
2022-09-10T23:51:03.553Z,64.41
2022-09-10T23:53:32.062Z,64.42
2022-09-10T23:56:00.248Z,64.34
2022-09-10T23:58:29.662Z,63.97
